createdAt,value
2022-11-19T00:02:08.057Z,99569.50
2022-11-19T00:04:36.329Z,99567.94
2022-11-19T00:07:04.698Z,99561.84
2022-11-19T00:09:33.002Z,99565.38
2022-11-19T00:12:19.884Z,99566.56
2022-11-19T00:14:48.524Z,99572.91
2022-11-19T00:17:16.737Z,99573.88
2022-11-19T00:19:44.742Z,99567.03
2022-11-19T00:22:13.931Z,99556.97
2022-11-19T00:24:42.063Z,99563.56
2022-11-19T00:27:11.689Z,99569.00
2022-11-19T00:29:39.714Z,99565.31
2022-11-19T00:32:08.629Z,99564.28
2022-11-19T00:34:36.832Z,99565.31
2022-11-19T00:37:04.989Z,99565.31
2022-11-19T00:39:33.075Z,99567.88
2022-11-19T00:42:01.323Z,99564.69
2022-11-19T00:44:34.000Z,99573.00
2022-11-19T00:47:05.952Z,99565.97
2022-11-19T00:49:34.076Z,99566.72
2022-11-19T00:52:02.176Z,99571.81
2022-11-19T00:54:30.740Z,99575.44
2022-11-19T00:56:58.716Z,99573.72
2022-11-19T00:59:26.725Z,99581.53
2022-11-19T01:01:55.174Z,99573.72
2022-11-19T01:04:23.294Z,99583.09
2022-11-19T01:06:51.111Z,99579.81
2022-11-19T01:09:20.505Z,99575.44
2022-11-19T01:11:48.659Z,99578.78
2022-11-19T01:14:16.578Z,99593.59
2022-11-19T01:16:44.467Z,99582.31
2022-11-19T01:19:16.375Z,99568.19
2022-11-19T01:21:44.986Z,99569.13
2022-11-19T01:24:13.173Z,99591.78
2022-11-19T01:26:45.484Z,99575.94
2022-11-19T01:29:14.861Z,99593.66
2022-11-19T01:31:46.317Z,99580.66
2022-11-19T01:34:14.172Z,99591.84
2022-11-19T01:36:42.759Z,99587.47
2022-11-19T01:39:11.124Z,99586.69
2022-11-19T01:41:39.516Z,99596.16
2022-11-19T01:44:47.466Z,99589.88
2022-11-19T01:47:16.019Z,99584.97
2022-11-19T01:49:44.025Z,99579.09
2022-11-19T01:52:12.150Z,99583.50
2022-11-19T01:54:47.334Z,99583.50
2022-11-19T01:57:18.341Z,99584.53
2022-11-19T01:59:51.348Z,99584.84
2022-11-19T02:02:20.689Z,99584.22
2022-11-19T02:04:51.748Z,99587.75
2022-11-19T02:07:29.169Z,99581.63
2022-11-19T02:09:59.859Z,99589.84
2022-11-19T02:12:54.171Z,99580.00
2022-11-19T02:16:02.414Z,99574.19
2022-11-19T02:18:56.830Z,99581.44
2022-11-19T02:22:13.309Z,99590.63
2022-11-19T02:25:02.426Z,99583.63
2022-11-19T02:28:01.475Z,99588.09
2022-11-19T02:30:40.315Z,99586.47
2022-11-19T02:33:36.694Z,99593.53
2022-11-19T02:36:46.928Z,99590.53
2022-11-19T02:39:31.096Z,99591.53
2022-11-19T02:42:37.449Z,99582.94
2022-11-19T02:45:51.514Z,99587.41
2022-11-19T02:48:38.358Z,99601.72
2022-11-19T02:51:08.064Z,99593.03
2022-11-19T02:53:36.096Z,99597.94
2022-11-19T02:56:34.890Z,99590.50
2022-11-19T02:59:22.103Z,99595.56
2022-11-19T03:02:10.004Z,99598.94
2022-11-19T03:04:37.954Z,99599.66
2022-11-19T03:07:19.159Z,99600.97
2022-11-19T03:09:55.925Z,99601.59
2022-11-19T03:13:22.930Z,99603.16
2022-11-19T03:16:11.402Z,99606.06
2022-11-19T03:18:50.828Z,99609.16
2022-11-19T03:21:39.752Z,99609.94
2022-11-19T03:24:26.674Z,99603.06
2022-11-19T03:27:19.378Z,99603.56
2022-11-19T03:29:53.216Z,99608.66
2022-11-19T03:32:40.674Z,99603.31
2022-11-19T03:35:18.636Z,99614.00
2022-11-19T03:37:51.236Z,99616.66
2022-11-19T03:40:22.008Z,99619.22
2022-11-19T03:42:54.783Z,99619.22
2022-11-19T03:45:29.817Z,99622.59
2022-11-19T03:48:00.012Z,99619.47
2022-11-19T03:50:56.647Z,99631.47
2022-11-19T03:53:26.022Z,99629.84
2022-11-19T03:56:01.487Z,99631.31
2022-11-19T03:58:30.012Z,99618.22
2022-11-19T04:00:57.955Z,99627.00
2022-11-19T04:03:25.873Z,99615.38
2022-11-19T04:05:53.735Z,99627.59
2022-11-19T04:08:21.861Z,99626.06
2022-11-19T04:10:49.797Z,99625.97
2022-11-19T04:13:17.941Z,99621.50
2022-11-19T04:15:46.138Z,99623.47
2022-11-19T04:18:14.050Z,99630.34
2022-11-19T04:20:45.261Z,99604.97
2022-11-19T04:23:13.501Z,99621.41
2022-11-19T04:25:47.718Z,99628.38
2022-11-19T04:28:15.910Z,99625.03
2022-11-19T04:30:46.198Z,99624.16
2022-11-19T04:33:14.143Z,99623.22
2022-11-19T04:35:46.176Z,99633.53
2022-11-19T04:38:14.117Z,99634.75
2022-11-19T04:40:42.409Z,99625.03
2022-11-19T04:43:10.747Z,99638.19
2022-11-19T04:45:38.700Z,99634.69
2022-11-19T04:48:06.960Z,99632.25
2022-11-19T04:50:34.909Z,99640.94
2022-11-19T04:53:02.750Z,99646.97
2022-11-19T04:55:30.814Z,99636.44
2022-11-19T04:57:58.896Z,99632.00
2022-11-19T05:00:27.907Z,99637.09
2022-11-19T05:02:55.729Z,99631.81
2022-11-19T05:05:23.710Z,99633.72
2022-11-19T05:07:51.498Z,99638.88
2022-11-19T05:10:19.562Z,99638.09
2022-11-19T05:12:47.847Z,99639.06
2022-11-19T05:15:15.786Z,99644.56
2022-11-19T05:17:45.430Z,99653.16
2022-11-19T05:20:13.863Z,99649.72
2022-11-19T05:22:41.681Z,99650.69
2022-11-19T05:25:09.896Z,99647.31
2022-11-19T05:27:37.905Z,99647.22
2022-11-19T05:30:06.673Z,99649.78
2022-11-19T05:32:36.883Z,99652.41
2022-11-19T05:35:05.936Z,99645.50
2022-11-19T05:37:33.911Z,99654.38
2022-11-19T05:40:02.346Z,99654.38
2022-11-19T05:42:30.275Z,99651.78
2022-11-19T05:44:58.171Z,99647.41
2022-11-19T05:47:26.135Z,99651.00
2022-11-19T05:49:53.936Z,99652.03
2022-11-19T05:52:21.700Z,99661.84
2022-11-19T05:54:49.491Z,99658.34
2022-11-19T05:57:17.393Z,99654.88
2022-11-19T05:59:45.627Z,99654.81
2022-11-19T06:02:13.654Z,99658.56
2022-11-19T06:04:41.778Z,99668.38
2022-11-19T06:07:09.869Z,99659.69
2022-11-19T06:09:37.742Z,99668.63
2022-11-19T06:12:06.219Z,99667.94
2022-11-19T06:14:35.878Z,99672.50
2022-11-19T06:17:04.613Z,99661.13
2022-11-19T06:19:32.742Z,99669.13
2022-11-19T06:22:00.946Z,99663.94
2022-11-19T06:24:29.313Z,99660.66
2022-11-19T06:26:57.203Z,99677.53
2022-11-19T06:29:25.774Z,99671.41
2022-11-19T06:31:53.766Z,99672.63
2022-11-19T06:34:21.867Z,99676.19
2022-11-19T06:36:50.926Z,99672.72
2022-11-19T06:39:19.636Z,99675.41
2022-11-19T06:41:49.177Z,99670.22
2022-11-19T06:44:17.823Z,99672.03
2022-11-19T06:46:45.665Z,99689.91
2022-11-19T06:49:19.593Z,99690.69
2022-11-19T06:51:48.429Z,99697.81
2022-11-19T06:54:16.180Z,99700.44
2022-11-19T06:56:44.457Z,99702.16
2022-11-19T06:59:12.219Z,99697.59
2022-11-19T07:01:40.094Z,99702.91
2022-11-19T07:04:08.136Z,99706.53
2022-11-19T07:06:36.450Z,99700.44
2022-11-19T07:09:04.355Z,99702.06
2022-11-19T07:11:32.682Z,99708.19
2022-11-19T07:14:00.703Z,99712.66
2022-11-19T07:16:34.855Z,99708.19
2022-11-19T07:19:06.667Z,99717.84
2022-11-19T07:21:34.989Z,99718.00
2022-11-19T07:24:06.587Z,99726.63
2022-11-19T07:26:35.352Z,99720.47
2022-11-19T07:29:06.662Z,99735.00
2022-11-19T07:31:34.936Z,99726.06
2022-11-19T07:34:09.628Z,99738.94
2022-11-19T07:36:38.081Z,99732.75
2022-11-19T07:39:09.670Z,99733.28
2022-11-19T07:41:56.584Z,99734.16
2022-11-19T07:44:24.928Z,99727.88
2022-11-19T07:46:54.293Z,99729.19
2022-11-19T07:49:22.868Z,99734.53
2022-11-19T07:51:51.462Z,99729.81
2022-11-19T07:54:19.996Z,99736.81
2022-11-19T07:56:48.230Z,99732.22
2022-11-19T07:59:16.815Z,99728.63
2022-11-19T08:01:45.359Z,99732.31
2022-11-19T08:04:15.004Z,99734.75
2022-11-19T08:06:43.779Z,99738.28
2022-11-19T08:09:11.684Z,99735.59
2022-11-19T08:11:42.498Z,99731.13
2022-11-19T08:14:15.107Z,99748.91
2022-11-19T08:17:02.203Z,99744.25
2022-11-19T08:19:30.792Z,99755.47
2022-11-19T08:21:58.807Z,99759.94
2022-11-19T08:24:27.724Z,99763.47
2022-11-19T08:26:55.656Z,99749.28
2022-11-19T08:29:23.862Z,99752.09
2022-11-19T08:31:52.145Z,99756.25
2022-11-19T08:34:20.497Z,99753.53
2022-11-19T08:36:49.180Z,99768.25
2022-11-19T08:39:17.898Z,99770.16
2022-11-19T08:42:04.530Z,99769.00
2022-11-19T08:44:32.817Z,99770.06
2022-11-19T08:47:00.656Z,99768.25
2022-11-19T08:49:28.825Z,99779.44
2022-11-19T08:51:57.599Z,99771.63
2022-11-19T08:54:26.083Z,99787.28
2022-11-19T08:56:53.879Z,99779.06
2022-11-19T08:59:21.932Z,99783.44
2022-11-19T09:01:50.423Z,99780.75
2022-11-19T09:04:19.240Z,99780.69
2022-11-19T09:06:47.503Z,99781.53
2022-11-19T09:09:15.415Z,99782.44
2022-11-19T09:11:43.566Z,99782.34
2022-11-19T09:14:11.592Z,99787.53
2022-11-19T09:16:40.339Z,99788.38
2022-11-19T09:19:08.377Z,99777.50
2022-11-19T09:21:36.249Z,99780.97
2022-11-19T09:24:04.473Z,99787.19
2022-11-19T09:26:32.279Z,99773.22
2022-11-19T09:29:00.913Z,99787.19
2022-11-19T09:31:28.813Z,99790.81
2022-11-19T09:33:57.687Z,99796.91
2022-11-19T09:36:25.780Z,99791.81
2022-11-19T09:38:57.998Z,99797.84
2022-11-19T09:41:46.965Z,99806.81
2022-11-19T09:44:45.597Z,99809.78
2022-11-19T09:47:42.188Z,99811.94
2022-11-19T09:50:24.656Z,99818.47
2022-11-19T09:53:07.562Z,99819.31
2022-11-19T09:55:40.284Z,99819.31
2022-11-19T09:58:20.506Z,99822.00
2022-11-19T10:00:48.633Z,99822.75
2022-11-19T10:03:22.152Z,99830.47
2022-11-19T10:06:06.300Z,99809.59
2022-11-19T10:08:52.113Z,99831.38
2022-11-19T10:11:29.873Z,99819.00
2022-11-19T10:14:00.888Z,99827.72
2022-11-19T10:16:56.505Z,99819.84
2022-11-19T10:20:04.552Z,99822.47
2022-11-19T10:22:46.532Z,99822.50
2022-11-19T10:25:21.966Z,99821.66
2022-11-19T10:27:55.639Z,99824.31
2022-11-19T10:30:56.399Z,99817.50
2022-11-19T10:34:12.421Z,99820.09
2022-11-19T10:36:50.177Z,99822.00
2022-11-19T10:39:52.503Z,99806.38
2022-11-19T10:42:35.975Z,99815.19
2022-11-19T10:45:27.582Z,99817.84
2022-11-19T10:48:15.719Z,99810.00
2022-11-19T10:50:45.004Z,99818.09
2022-11-19T10:53:24.186Z,99807.41
2022-11-19T10:55:59.260Z,99812.75
2022-11-19T10:58:36.521Z,99808.13
2022-11-19T11:01:31.293Z,99802.06
2022-11-19T11:04:23.578Z,99809.28
2022-11-19T11:06:59.048Z,99806.97
2022-11-19T11:09:44.247Z,99808.03
2022-11-19T11:12:41.309Z,99802.56
2022-11-19T11:15:23.380Z,99808.84
2022-11-19T11:18:05.599Z,99807.78
2022-11-19T11:20:34.423Z,99801.78
2022-11-19T11:23:25.081Z,99802.31
2022-11-19T11:26:05.758Z,99803.16
2022-11-19T11:28:34.176Z,99795.50
2022-11-19T11:31:10.526Z,99808.13
2022-11-19T11:33:54.235Z,99805.44
2022-11-19T11:36:28.509Z,99793.88
2022-11-19T11:39:00.049Z,99798.13
2022-11-19T11:44:29.171Z,99799.56
2022-11-19T11:47:22.192Z,99806.31
2022-11-19T11:50:28.200Z,99801.88
2022-11-19T11:53:00.005Z,99804.03
2022-11-19T11:55:27.993Z,99809.44
2022-11-19T11:58:02.590Z,99804.03
2022-11-19T12:00:46.217Z,99811.25
2022-11-19T12:03:19.206Z,99822.00
2022-11-19T12:06:15.686Z,99816.13
2022-11-19T12:09:08.632Z,99814.00
2022-11-19T12:12:04.171Z,99820.53
2022-11-19T12:15:17.097Z,99806.56
2022-11-19T12:18:02.016Z,99822.72
2022-11-19T12:20:47.717Z,99824.72
2022-11-19T12:23:30.558Z,99826.75
2022-11-19T12:26:31.545Z,99826.03
2022-11-19T12:29:27.930Z,99830.81
2022-11-19T12:31:59.646Z,99825.78
2022-11-19T12:34:49.700Z,99819.84
2022-11-19T12:37:31.099Z,99822.56
2022-11-19T12:40:31.101Z,99830.00
2022-11-19T12:43:43.746Z,99831.28
2022-11-19T12:46:50.223Z,99838.81
2022-11-19T12:49:45.976Z,99836.41
2022-11-19T12:52:38.410Z,99850.56
2022-11-19T12:55:54.416Z,99842.69
2022-11-19T12:58:43.279Z,99848.88
2022-11-19T13:01:25.435Z,99853.25
2022-11-19T13:04:23.405Z,99849.81
2022-11-19T13:07:12.019Z,99853.50
2022-11-19T13:09:51.022Z,99856.31
2022-11-19T13:12:27.519Z,99842.47
2022-11-19T13:15:24.237Z,99843.34
2022-11-19T13:17:56.158Z,99853.28
2022-11-19T13:20:57.903Z,99859.47
2022-11-19T13:23:47.330Z,99855.22
2022-11-19T13:26:30.188Z,99853.06
2022-11-19T13:29:27.436Z,99860.19
2022-11-19T13:32:15.706Z,99864.78
2022-11-19T13:35:04.127Z,99861.25
2022-11-19T13:37:58.452Z,99884.00
2022-11-19T13:40:41.024Z,99868.22
2022-11-19T13:43:37.658Z,99872.69
2022-11-19T13:46:28.857Z,99871.09
2022-11-19T13:49:23.110Z,99870.41
2022-11-19T13:52:27.781Z,99868.59
2022-11-19T13:54:58.478Z,99863.56
2022-11-19T13:57:35.098Z,99871.38
2022-11-19T14:00:08.148Z,99872.19
2022-11-19T14:03:09.975Z,99870.31
2022-11-19T14:06:02.752Z,99867.66
2022-11-19T14:09:04.786Z,99865.13
2022-11-19T14:12:17.582Z,99863.56
2022-11-19T14:15:31.635Z,99866.44
2022-11-19T14:18:34.738Z,99864.84
2022-11-19T14:21:46.976Z,99875.69
2022-11-19T14:24:46.474Z,99867.78
2022-11-19T14:27:20.615Z,99877.72
2022-11-19T14:29:48.722Z,99873.41
2022-11-19T14:32:18.766Z,99869.00
2022-11-19T14:35:04.204Z,99868.06
2022-11-19T14:37:48.723Z,99880.59
2022-11-19T14:40:32.888Z,99883.50
2022-11-19T14:43:18.926Z,99885.44
2022-11-19T14:46:04.876Z,99880.25
2022-11-19T14:48:52.046Z,99886.50
2022-11-19T14:51:41.139Z,99891.00
2022-11-19T14:54:15.539Z,99897.28
2022-11-19T14:56:49.071Z,99889.44
2022-11-19T14:59:19.963Z,99900.94
2022-11-19T15:01:59.295Z,99893.00
2022-11-19T15:04:55.751Z,99901.06
2022-11-19T15:07:56.267Z,99896.94
2022-11-19T15:10:33.314Z,99896.94
2022-11-19T15:13:23.227Z,99895.16
2022-11-19T15:15:56.622Z,99899.72
2022-11-19T15:18:43.168Z,99895.38
2022-11-19T15:21:45.723Z,99891.09
2022-11-19T15:24:40.435Z,99893.03
2022-11-19T15:27:32.156Z,99899.63
2022-11-19T15:30:14.328Z,99900.38
2022-11-19T15:32:53.894Z,99906.44
2022-11-19T15:36:05.619Z,99902.97
2022-11-19T15:39:02.286Z,99910.16
2022-11-19T15:41:38.457Z,99896.91
2022-11-19T15:44:13.753Z,99907.59
2022-11-19T15:46:51.058Z,99902.22
2022-11-19T15:49:29.551Z,99905.69
2022-11-19T15:52:17.723Z,99905.78
2022-11-19T15:54:47.752Z,99910.59
2022-11-19T15:57:28.003Z,99919.28
2022-11-19T16:00:02.226Z,99920.41
2022-11-19T16:02:44.526Z,99915.03
2022-11-19T16:05:29.796Z,99914.16
2022-11-19T16:08:04.806Z,99913.31
2022-11-19T16:10:41.901Z,99915.09
2022-11-19T16:13:44.585Z,99915.09
2022-11-19T16:16:47.606Z,99921.34
2022-11-19T16:19:17.992Z,99905.69
2022-11-19T16:21:55.954Z,99921.44
2022-11-19T16:24:45.442Z,99924.00
2022-11-19T16:27:24.199Z,99923.22
2022-11-19T16:29:53.064Z,99917.09
2022-11-19T16:32:40.876Z,99921.53
2022-11-19T16:35:21.646Z,99923.25
2022-11-19T16:37:50.225Z,99917.25
2022-11-19T16:40:20.746Z,99923.34
2022-11-19T16:43:01.167Z,99914.59
2022-11-19T16:45:33.109Z,99933.03
2022-11-19T16:48:04.040Z,99929.59
2022-11-19T16:50:43.803Z,99916.47
2022-11-19T16:53:47.938Z,99920.94
2022-11-19T16:56:17.145Z,99928.22
2022-11-19T16:58:46.681Z,99928.22
2022-11-19T17:01:18.813Z,99933.28
2022-11-19T17:03:48.460Z,99941.34
2022-11-19T17:06:26.823Z,99940.31
2022-11-19T17:08:58.424Z,99951.06
2022-11-19T17:12:06.211Z,99948.41
2022-11-19T17:14:40.116Z,99944.09
2022-11-19T17:17:51.833Z,99945.06
2022-11-19T17:20:32.191Z,99950.34
2022-11-19T17:23:08.870Z,99946.00
2022-11-19T17:25:58.230Z,99945.06
2022-11-19T17:28:48.967Z,99948.72
2022-11-19T17:31:26.199Z,99951.50
2022-11-19T17:33:58.624Z,99958.69
2022-11-19T17:36:27.662Z,99942.97
2022-11-19T17:38:56.084Z,99953.63
2022-11-19T17:41:46.990Z,99957.75
2022-11-19T17:44:39.504Z,99957.16
2022-11-19T17:47:23.554Z,99973.78
2022-11-19T17:49:53.286Z,99989.81
2022-11-19T17:52:30.400Z,99977.63
2022-11-19T17:55:19.718Z,99993.50
2022-11-19T17:57:49.763Z,99994.63
2022-11-19T18:00:18.247Z,99996.41
2022-11-19T18:02:48.737Z,99997.41
2022-11-19T18:05:21.629Z,99994.53
2022-11-19T18:07:50.359Z,99996.41
2022-11-19T18:10:18.819Z,100009.69
2022-11-19T18:12:46.953Z,100002.72
2022-11-19T18:15:20.543Z,100005.31
2022-11-19T18:17:49.115Z,100002.66
2022-11-19T18:20:17.462Z,100002.66
2022-11-19T18:22:46.110Z,99995.66
2022-11-19T18:25:18.388Z,100003.44
2022-11-19T18:27:46.902Z,99994.78
2022-11-19T18:30:16.118Z,99994.69
2022-11-19T18:32:44.504Z,100003.50
2022-11-19T18:35:18.377Z,100007.97
2022-11-19T18:37:46.944Z,100010.69
2022-11-19T18:40:16.177Z,100000.16
2022-11-19T18:43:04.918Z,100002.75
2022-11-19T18:45:33.109Z,100003.09
2022-11-19T18:48:01.393Z,100003.84
2022-11-19T18:50:30.358Z,100015.47
2022-11-19T18:52:58.674Z,99999.72
2022-11-19T18:55:27.253Z,99990.13
2022-11-19T18:57:56.477Z,99998.09
2022-11-19T19:00:24.714Z,100010.44
2022-11-19T19:02:53.073Z,100017.47
2022-11-19T19:05:21.745Z,100008.72
2022-11-19T19:07:52.390Z,100017.44
2022-11-19T19:10:20.697Z,100007.78
2022-11-19T19:12:49.039Z,100026.38
2022-11-19T19:15:18.068Z,100017.63
2022-11-19T19:17:46.075Z,100032.63
2022-11-19T19:20:15.421Z,100026.53
2022-11-19T19:22:43.892Z,100034.56
2022-11-19T19:25:12.444Z,100024.81
2022-11-19T19:27:40.993Z,100032.69
2022-11-19T19:30:09.989Z,100030.75
2022-11-19T19:32:39.460Z,100033.41
2022-11-19T19:35:08.456Z,100033.47
2022-11-19T19:37:37.961Z,100032.69
2022-11-19T19:40:07.849Z,100030.66
2022-11-19T19:42:41.243Z,100035.03
2022-11-19T19:45:10.495Z,100041.22
2022-11-19T19:47:39.524Z,100052.69
2022-11-19T19:50:08.267Z,100044.72
2022-11-19T19:52:38.609Z,100035.97
2022-11-19T19:55:07.118Z,100043.81
2022-11-19T19:57:35.091Z,100045.56
2022-11-19T20:00:04.901Z,100029.97
2022-11-19T20:02:39.963Z,100051.97
2022-11-19T20:05:09.014Z,100048.38
2022-11-19T20:07:37.226Z,100044.88
2022-11-19T20:10:06.384Z,100048.31
2022-11-19T20:13:04.128Z,100033.56
2022-11-19T20:15:36.320Z,100046.91
2022-11-19T20:18:04.818Z,100057.38
2022-11-19T20:20:33.707Z,100064.31
2022-11-19T20:23:02.108Z,100058.19
2022-11-19T20:25:31.281Z,100061.66
2022-11-19T20:27:59.379Z,100059.00
2022-11-19T20:30:27.596Z,100060.84
2022-11-19T20:32:57.215Z,100062.69
2022-11-19T20:35:25.456Z,100071.47
2022-11-19T20:37:54.233Z,100070.59
2022-11-19T20:40:23.368Z,100066.16
2022-11-19T20:43:09.944Z,100061.91
2022-11-19T20:45:37.902Z,100050.66
2022-11-19T20:48:06.035Z,100073.22
2022-11-19T20:50:34.417Z,100059.25
2022-11-19T20:53:02.634Z,100058.31
2022-11-19T20:55:33.113Z,100065.97
2022-11-19T20:58:02.939Z,100060.81
2022-11-19T21:00:33.227Z,100071.34
2022-11-19T21:03:01.503Z,100056.63
2022-11-19T21:05:29.388Z,100067.94
2022-11-19T21:07:57.934Z,100074.19
2022-11-19T21:10:26.183Z,100070.81
2022-11-19T21:13:03.586Z,100068.00
2022-11-19T21:15:36.076Z,100067.94
2022-11-19T21:18:04.480Z,100063.56
2022-11-19T21:20:33.158Z,100070.56
2022-11-19T21:23:01.290Z,100068.69
2022-11-19T21:25:29.737Z,100065.97
2022-11-19T21:27:58.633Z,100059.81
2022-11-19T21:30:27.755Z,100068.59
2022-11-19T21:32:56.110Z,100062.34
2022-11-19T21:35:24.730Z,100060.66
2022-11-19T21:37:52.901Z,100063.38
2022-11-19T21:40:20.870Z,100066.84
2022-11-19T21:42:48.859Z,100060.63
2022-11-19T21:45:17.323Z,100071.25
2022-11-19T21:47:45.254Z,100069.63
2022-11-19T21:50:17.205Z,100072.31
2022-11-19T21:52:45.973Z,100068.97
2022-11-19T21:55:14.472Z,100074.34
2022-11-19T21:57:43.257Z,100068.97
2022-11-19T22:00:13.096Z,100053.19
2022-11-19T22:02:41.831Z,100068.09
2022-11-19T22:05:10.199Z,100060.19
2022-11-19T22:07:38.483Z,100056.84
2022-11-19T22:10:07.395Z,100053.38
2022-11-19T22:12:36.108Z,100068.09
2022-11-19T22:15:05.491Z,100062.84
2022-11-19T22:17:34.186Z,100055.75
2022-11-19T22:20:02.905Z,100050.53
2022-11-19T22:22:30.861Z,100064.19
2022-11-19T22:24:59.224Z,100064.31
2022-11-19T22:27:29.957Z,100072.06
2022-11-19T22:30:01.764Z,100064.19
2022-11-19T22:32:32.587Z,100063.22
2022-11-19T22:35:00.927Z,100063.22
2022-11-19T22:37:29.245Z,100060.56
2022-11-19T22:39:57.790Z,100053.38
2022-11-19T22:42:26.139Z,100066.50
2022-11-19T22:44:54.312Z,100052.44
2022-11-19T22:47:22.506Z,100057.69
2022-11-19T22:49:51.415Z,100028.97
2022-11-19T22:52:19.732Z,100056.13
2022-11-19T22:54:48.345Z,100047.44
2022-11-19T22:57:16.705Z,100058.88
2022-11-19T22:59:45.321Z,100060.63
2022-11-19T23:02:13.685Z,100043.16
2022-11-19T23:04:42.018Z,100050.97
2022-11-19T23:07:10.163Z,100034.09
2022-11-19T23:09:38.441Z,100055.03
2022-11-19T23:12:25.673Z,100048.69
2022-11-19T23:14:54.188Z,100030.53
2022-11-19T23:17:22.434Z,100036.50
2022-11-19T23:19:50.598Z,100037.41
2022-11-19T23:22:18.762Z,100038.28
2022-11-19T23:24:47.037Z,100048.75
2022-11-19T23:27:20.769Z,100044.28
2022-11-19T23:29:50.562Z,100038.16
2022-11-19T23:32:18.541Z,100020.63
2022-11-19T23:34:46.944Z,100041.47
2022-11-19T23:37:15.246Z,100048.44
2022-11-19T23:39:43.538Z,100040.53
2022-11-19T23:42:11.475Z,100045.84
2022-11-19T23:44:41.116Z,100026.44
2022-11-19T23:47:09.282Z,100030.00
2022-11-19T23:49:37.180Z,100017.59
2022-11-19T23:52:05.586Z,100042.16
2022-11-19T23:54:33.644Z,100027.25
2022-11-19T23:57:01.840Z,100028.22
2022-11-19T23:59:30.099Z,100024.75
